createdAt,value
2023-04-14T00:01:56.474Z,100.00
2023-04-14T00:04:23.172Z,100.00
2023-04-14T00:06:49.953Z,100.00
2023-04-14T00:09:16.436Z,100.00
2023-04-14T00:11:42.927Z,100.00
2023-04-14T00:14:09.380Z,100.00
2023-04-14T00:16:36.034Z,100.00
2023-04-14T00:19:02.917Z,100.00
2023-04-14T00:21:29.575Z,100.00
2023-04-14T00:23:56.748Z,100.00
2023-04-14T00:26:23.270Z,100.00
2023-04-14T00:28:49.724Z,100.00
2023-04-14T00:31:16.368Z,100.00
2023-04-14T00:33:42.897Z,100.00
2023-04-14T00:36:09.379Z,100.00
2023-04-14T00:38:35.874Z,100.00
2023-04-14T00:41:02.397Z,100.00
2023-04-14T00:43:28.875Z,100.00
2023-04-14T00:45:55.497Z,100.00
2023-04-14T00:48:22.024Z,100.00
2023-04-14T00:50:48.571Z,100.00
2023-04-14T00:53:15.090Z,100.00
2023-04-14T00:55:41.615Z,100.00
2023-04-14T00:58:08.366Z,100.00
2023-04-14T01:00:35.336Z,100.00
2023-04-14T01:03:01.925Z,100.00
2023-04-14T01:05:28.668Z,100.00
2023-04-14T01:07:55.353Z,100.00
2023-04-14T01:10:21.880Z,100.00
2023-04-14T01:13:04.326Z,100.00
2023-04-14T01:15:36.085Z,100.00
2023-04-14T01:18:14.707Z,100.00
2023-04-14T01:20:42.527Z,100.00
2023-04-14T01:23:11.692Z,100.00
2023-04-14T01:26:17.123Z,100.00
2023-04-14T01:29:02.482Z,100.00
2023-04-14T01:31:49.283Z,100.00
2023-04-14T01:34:39.162Z,100.00
2023-04-14T01:37:12.523Z,100.00
2023-04-14T01:39:40.507Z,100.00
2023-04-14T01:42:11.354Z,100.00
2023-04-14T01:44:38.725Z,100.00
2023-04-14T01:47:07.736Z,100.00
2023-04-14T01:49:35.493Z,100.00
2023-04-14T01:52:02.328Z,100.00
2023-04-14T01:54:28.809Z,100.00
2023-04-14T01:56:55.275Z,100.00
2023-04-14T01:59:22.561Z,100.00
2023-04-14T02:01:50.485Z,100.00
2023-04-14T02:04:18.147Z,100.00
2023-04-14T02:06:44.733Z,100.00
2023-04-14T02:09:12.886Z,100.00
2023-04-14T02:11:39.896Z,100.00
2023-04-14T02:14:06.388Z,100.00
2023-04-14T02:16:33.661Z,100.00
2023-04-14T02:19:00.436Z,100.00
2023-04-14T02:21:27.192Z,100.00
2023-04-14T02:23:53.676Z,100.00
2023-04-14T02:26:22.173Z,100.00
2023-04-14T02:28:58.920Z,100.00
2023-04-14T02:31:25.699Z,100.00
2023-04-14T02:33:54.835Z,100.00
2023-04-14T02:36:23.731Z,100.00
2023-04-14T02:38:56.707Z,100.00
2023-04-14T02:41:27.081Z,100.00
2023-04-14T02:44:07.485Z,100.00
2023-04-14T02:46:37.561Z,100.00
2023-04-14T02:49:12.933Z,100.00
2023-04-14T02:51:39.667Z,100.00
2023-04-14T02:54:06.170Z,100.00
2023-04-14T02:56:32.884Z,100.00
2023-04-14T02:58:59.557Z,100.00
2023-04-14T03:01:26.257Z,100.00
2023-04-14T03:03:53.312Z,100.00
2023-04-14T03:06:20.199Z,100.00
2023-04-14T03:08:47.455Z,100.00
2023-04-14T03:11:14.698Z,100.00
2023-04-14T03:13:42.000Z,100.00
2023-04-14T03:16:09.442Z,100.00
2023-04-14T03:18:36.055Z,100.00
2023-04-14T03:21:02.737Z,100.00
2023-04-14T03:23:29.198Z,100.00
2023-04-14T03:25:55.738Z,100.00
2023-04-14T03:28:23.602Z,100.00
2023-04-14T03:30:51.615Z,100.00
2023-04-14T03:33:20.429Z,100.00
2023-04-14T03:35:46.976Z,100.00
2023-04-14T03:38:17.389Z,100.00
2023-04-14T03:40:46.352Z,100.00
2023-04-14T03:43:14.095Z,100.00
2023-04-14T03:45:40.730Z,100.00
2023-04-14T03:48:09.912Z,100.00
2023-04-14T03:50:37.016Z,100.00
2023-04-14T03:53:04.165Z,100.00
2023-04-14T03:55:31.815Z,100.00
2023-04-14T03:57:58.873Z,100.00
2023-04-14T04:00:26.157Z,100.00
2023-04-14T04:02:53.810Z,100.00
2023-04-14T04:05:21.138Z,100.00
2023-04-14T04:07:48.203Z,100.00
2023-04-14T04:10:14.684Z,100.00
2023-04-14T04:12:44.423Z,100.00
2023-04-14T04:15:11.349Z,100.00
2023-04-14T04:17:38.072Z,100.00
2023-04-14T04:20:14.406Z,100.00
2023-04-14T04:22:41.874Z,100.00
2023-04-14T04:25:08.850Z,100.00
2023-04-14T04:27:35.366Z,100.00
2023-04-14T04:30:01.946Z,100.00
2023-04-14T04:32:28.620Z,100.00
2023-04-14T04:34:55.201Z,100.00
2023-04-14T04:37:21.724Z,100.00
2023-04-14T04:39:48.673Z,100.00
2023-04-14T04:42:15.237Z,100.00
2023-04-14T04:44:41.871Z,100.00
2023-04-14T04:47:08.368Z,100.00
2023-04-14T04:49:34.819Z,100.00
2023-04-14T04:52:01.310Z,100.00
2023-04-14T04:54:27.828Z,100.00
2023-04-14T04:56:54.334Z,100.00
2023-04-14T04:59:20.822Z,100.00
2023-04-14T05:01:47.471Z,100.00
2023-04-14T05:04:14.114Z,100.00
2023-04-14T05:06:40.852Z,100.00
2023-04-14T05:09:07.328Z,100.00
2023-04-14T05:11:33.955Z,100.00
2023-04-14T05:14:00.545Z,100.00
2023-04-14T05:16:28.240Z,100.00
2023-04-14T05:18:54.729Z,100.00
2023-04-14T05:21:21.648Z,100.00
2023-04-14T05:23:48.218Z,100.00
2023-04-14T05:26:40.247Z,100.00
2023-04-14T05:29:01.890Z,100.00
2023-04-14T05:31:28.503Z,100.00
2023-04-14T05:33:55.117Z,100.00
2023-04-14T05:36:21.608Z,100.00
2023-04-14T05:38:48.112Z,100.00
2023-04-14T05:41:14.638Z,100.00
2023-04-14T05:43:41.149Z,100.00
2023-04-14T05:46:07.768Z,100.00
2023-04-14T05:48:36.325Z,100.00
2023-04-14T05:51:02.810Z,100.00
2023-04-14T05:53:29.342Z,100.00
2023-04-14T05:55:57.237Z,100.00
2023-04-14T05:58:26.238Z,100.00
2023-04-14T06:00:52.833Z,100.00
2023-04-14T06:03:19.695Z,100.00
2023-04-14T06:05:48.164Z,100.00
2023-04-14T06:08:14.667Z,100.00
2023-04-14T06:10:41.366Z,100.00
2023-04-14T06:13:08.615Z,100.00
2023-04-14T06:15:35.297Z,100.00
2023-04-14T06:18:01.894Z,100.00
2023-04-14T06:20:29.585Z,100.00
2023-04-14T06:22:57.232Z,100.00
2023-04-14T06:25:23.729Z,100.00
2023-04-14T06:27:50.208Z,100.00
2023-04-14T06:30:16.881Z,100.00
2023-04-14T06:32:43.527Z,100.00
2023-04-14T06:35:19.103Z,100.00
2023-04-14T06:37:52.406Z,100.00
2023-04-14T06:40:18.915Z,100.00
2023-04-14T06:42:45.466Z,100.00
2023-04-14T06:45:12.042Z,100.00
2023-04-14T06:47:38.643Z,100.00
2023-04-14T06:50:05.566Z,100.00
2023-04-14T06:52:32.093Z,100.00
2023-04-14T06:54:58.551Z,100.00
2023-04-14T06:57:26.339Z,100.00
2023-04-14T06:59:52.912Z,100.00
2023-04-14T07:02:19.491Z,100.00
2023-04-14T07:04:46.077Z,100.00
2023-04-14T07:07:14.350Z,100.00
2023-04-14T07:09:43.871Z,100.00
2023-04-14T07:12:14.471Z,100.00
2023-04-14T07:14:41.326Z,100.00
2023-04-14T07:17:08.053Z,100.00
2023-04-14T07:19:34.567Z,100.00
2023-04-14T07:22:01.932Z,99.03
2023-04-14T07:24:28.412Z,98.03
2023-04-14T07:26:54.875Z,95.50
2023-04-14T07:29:21.581Z,89.86
2023-04-14T07:31:48.497Z,88.83
2023-04-14T07:34:15.087Z,89.16
2023-04-14T07:36:41.631Z,90.65
2023-04-14T07:39:08.244Z,89.65
2023-04-14T07:41:34.710Z,91.20
2023-04-14T07:44:01.369Z,91.24
2023-04-14T07:46:28.056Z,91.90
2023-04-14T07:48:54.616Z,89.91
2023-04-14T07:51:21.399Z,85.73
2023-04-14T07:53:47.965Z,86.12
2023-04-14T07:56:14.899Z,83.55
2023-04-14T07:58:41.388Z,80.63
2023-04-14T08:01:08.050Z,79.83
2023-04-14T08:03:37.196Z,79.32
2023-04-14T08:06:05.712Z,80.32
2023-04-14T08:08:32.720Z,79.45
2023-04-14T08:10:59.233Z,84.36
2023-04-14T08:13:25.904Z,78.44
2023-04-14T08:15:52.483Z,81.40
2023-04-14T08:18:19.045Z,78.49
2023-04-14T08:20:45.585Z,80.33
2023-04-14T08:23:12.226Z,78.21
2023-04-14T08:25:38.736Z,78.60
2023-04-14T08:28:05.683Z,78.93
2023-04-14T08:30:32.214Z,78.43
2023-04-14T08:32:58.934Z,78.40
2023-04-14T08:35:36.838Z,77.90
2023-04-14T08:38:07.805Z,77.50
2023-04-14T08:40:41.265Z,80.91
2023-04-14T08:43:07.827Z,79.15
2023-04-14T08:45:34.357Z,76.39
2023-04-14T08:48:01.840Z,76.27
2023-04-14T08:50:33.299Z,75.06
2023-04-14T08:53:01.091Z,72.46
2023-04-14T08:55:27.576Z,74.41
2023-04-14T08:57:54.053Z,72.95
2023-04-14T09:00:20.644Z,71.35
2023-04-14T09:02:47.501Z,72.33
2023-04-14T09:05:14.164Z,69.85
2023-04-14T09:07:42.652Z,66.86
2023-04-14T09:10:11.064Z,64.68
2023-04-14T09:12:41.586Z,67.64
2023-04-14T09:15:08.884Z,64.38
2023-04-14T09:17:36.703Z,62.66
2023-04-14T09:20:38.037Z,63.65
2023-04-14T09:22:50.002Z,67.01
2023-04-14T09:25:16.499Z,66.43
2023-04-14T09:27:42.969Z,67.61
2023-04-14T09:30:09.756Z,68.34
2023-04-14T09:32:36.876Z,67.85
2023-04-14T09:35:03.440Z,69.14
2023-04-14T09:37:41.124Z,68.63
2023-04-14T09:40:08.277Z,68.70
2023-04-14T09:42:42.519Z,67.39
2023-04-14T09:45:09.601Z,65.00
2023-04-14T09:47:36.161Z,63.21
2023-04-14T09:50:04.120Z,61.77
2023-04-14T09:52:41.019Z,61.55
2023-04-14T09:55:12.268Z,61.60
2023-04-14T09:57:42.669Z,62.05
2023-04-14T10:00:27.270Z,57.96
2023-04-14T10:02:59.098Z,59.13
2023-04-14T10:05:29.299Z,57.00
2023-04-14T10:08:05.261Z,55.73
2023-04-14T10:10:31.766Z,52.63
2023-04-14T10:12:59.795Z,47.83
2023-04-14T10:15:26.336Z,49.62
2023-04-14T10:17:52.824Z,52.92
2023-04-14T10:20:19.384Z,51.41
2023-04-14T10:22:46.000Z,51.00
2023-04-14T10:25:13.514Z,54.14
2023-04-14T10:27:40.163Z,50.49
2023-04-14T10:30:08.670Z,50.18
2023-04-14T10:32:35.445Z,54.24
2023-04-14T10:35:09.176Z,52.45
2023-04-14T10:37:35.731Z,49.60
2023-04-14T10:40:07.154Z,51.17
2023-04-14T10:42:57.236Z,50.73
2023-04-14T10:45:23.754Z,48.13
2023-04-14T10:47:50.844Z,45.71
2023-04-14T10:50:18.099Z,44.68
2023-04-14T10:52:55.695Z,46.78
2023-04-14T10:55:26.041Z,46.42
2023-04-14T10:57:54.515Z,46.56
2023-04-14T11:00:21.969Z,45.95
2023-04-14T11:03:05.498Z,51.81
2023-04-14T11:05:33.968Z,44.38
2023-04-14T11:08:03.100Z,44.12
2023-04-14T11:10:33.093Z,46.54
2023-04-14T11:13:02.340Z,45.71
2023-04-14T11:15:48.440Z,42.98
2023-04-14T11:18:21.598Z,41.42
2023-04-14T11:20:48.248Z,43.26
2023-04-14T11:23:15.282Z,41.34
2023-04-14T11:25:41.901Z,42.93
2023-04-14T11:28:08.773Z,41.90
2023-04-14T11:30:35.287Z,41.92
2023-04-14T11:33:01.847Z,40.44
2023-04-14T11:35:28.612Z,38.74
2023-04-14T11:37:59.303Z,44.50
2023-04-14T11:40:27.241Z,43.91
2023-04-14T11:42:57.466Z,44.48
2023-04-14T11:45:28.036Z,45.35
2023-04-14T11:48:01.751Z,47.95
2023-04-14T11:50:31.398Z,38.23
2023-04-14T11:53:02.841Z,41.18
2023-04-14T11:55:29.457Z,37.90
2023-04-14T11:57:56.107Z,39.53
2023-04-14T12:00:22.653Z,35.30
2023-04-14T12:02:49.415Z,39.33
2023-04-14T12:05:22.207Z,38.76
2023-04-14T12:07:49.214Z,38.92
2023-04-14T12:10:16.014Z,38.77
2023-04-14T12:12:42.655Z,42.59
2023-04-14T12:15:09.567Z,42.60
2023-04-14T12:17:36.328Z,40.39
2023-04-14T12:20:03.919Z,40.82
2023-04-14T12:22:30.735Z,41.78
2023-04-14T12:24:57.753Z,40.77
2023-04-14T12:27:25.125Z,39.99
2023-04-14T12:29:51.730Z,43.95
2023-04-14T12:32:18.589Z,45.04
2023-04-14T12:34:57.396Z,46.91
2023-04-14T12:37:26.146Z,46.46
2023-04-14T12:40:00.243Z,46.55
2023-04-14T12:42:27.454Z,44.31
2023-04-14T12:45:00.755Z,46.21
2023-04-14T12:47:28.943Z,47.53
2023-04-14T12:49:56.712Z,48.74
2023-04-14T12:52:39.683Z,48.48
2023-04-14T12:55:07.720Z,46.83
2023-04-14T12:57:34.646Z,46.06
2023-04-14T13:00:02.056Z,46.94
2023-04-14T13:02:29.830Z,46.54
2023-04-14T13:04:56.771Z,47.44
2023-04-14T13:07:23.480Z,49.71
2023-04-14T13:09:51.393Z,50.38
2023-04-14T13:12:18.571Z,48.10
2023-04-14T13:14:45.215Z,50.29
2023-04-14T13:17:11.825Z,48.63
2023-04-14T13:19:38.379Z,49.47
2023-04-14T13:22:04.935Z,50.36
2023-04-14T13:24:31.396Z,47.57
2023-04-14T13:26:57.926Z,49.08
2023-04-14T13:29:24.480Z,48.37
2023-04-14T13:31:51.205Z,50.62
2023-04-14T13:34:17.739Z,50.62
2023-04-14T13:36:45.567Z,51.38
2023-04-14T13:39:12.335Z,51.75
2023-04-14T13:41:38.858Z,52.17
2023-04-14T13:44:05.657Z,53.24
2023-04-14T13:46:40.500Z,51.32
2023-04-14T13:49:07.569Z,49.99
2023-04-14T13:51:34.057Z,49.12
2023-04-14T13:54:00.769Z,47.63
2023-04-14T13:56:27.376Z,47.69
2023-04-14T13:58:53.952Z,48.12
2023-04-14T14:01:20.657Z,46.75
2023-04-14T14:03:47.715Z,50.37
2023-04-14T14:06:14.549Z,45.81
2023-04-14T14:08:42.242Z,46.87
2023-04-14T14:11:09.588Z,46.50
2023-04-14T14:13:36.920Z,48.61
2023-04-14T14:16:03.780Z,47.64
2023-04-14T14:18:30.396Z,47.19
2023-04-14T14:20:57.158Z,48.49
2023-04-14T14:23:24.923Z,45.99
2023-04-14T14:25:52.182Z,44.59
2023-04-14T14:28:21.001Z,46.17
2023-04-14T14:30:47.626Z,49.37
2023-04-14T14:33:14.364Z,46.74
2023-04-14T14:35:40.830Z,47.53
2023-04-14T14:38:07.304Z,48.71
2023-04-14T14:40:33.839Z,49.71
2023-04-14T14:43:00.335Z,49.21
2023-04-14T14:45:30.792Z,49.44
2023-04-14T14:47:57.949Z,47.55
2023-04-14T14:50:24.491Z,48.95
2023-04-14T14:52:50.975Z,49.82
2023-04-14T14:55:17.557Z,50.29
2023-04-14T14:57:44.031Z,50.17
2023-04-14T15:00:11.001Z,49.52
2023-04-14T15:02:38.536Z,48.44
2023-04-14T15:05:05.836Z,49.48
2023-04-14T15:07:32.379Z,47.14
2023-04-14T15:09:58.865Z,47.82
2023-04-14T15:12:25.382Z,47.18
2023-04-14T15:14:51.880Z,48.50
2023-04-14T15:17:18.368Z,46.15
2023-04-14T15:19:44.903Z,44.40
2023-04-14T15:22:11.417Z,44.69
2023-04-14T15:24:38.301Z,45.38
2023-04-14T15:27:04.784Z,43.75
2023-04-14T15:29:31.626Z,43.13
2023-04-14T15:31:58.193Z,43.03
2023-04-14T15:34:25.257Z,44.81
2023-04-14T15:36:51.783Z,48.34
2023-04-14T15:39:18.332Z,48.42
2023-04-14T15:41:47.439Z,47.71
2023-04-14T15:44:14.016Z,49.16
2023-04-14T15:46:40.480Z,50.49
2023-04-14T15:49:06.952Z,51.72
2023-04-14T15:51:34.626Z,52.46
2023-04-14T15:54:01.954Z,51.87
2023-04-14T15:56:28.678Z,50.36
2023-04-14T15:58:55.153Z,52.04
2023-04-14T16:01:21.788Z,51.95
2023-04-14T16:03:50.384Z,51.67
2023-04-14T16:06:18.522Z,51.04
2023-04-14T16:08:44.991Z,49.93
2023-04-14T16:11:15.760Z,48.03
2023-04-14T16:13:44.012Z,49.57
2023-04-14T16:16:12.788Z,50.30
2023-04-14T16:18:39.350Z,53.65
2023-04-14T16:21:05.976Z,59.35
2023-04-14T16:23:32.449Z,62.01
2023-04-14T16:25:58.919Z,63.59
2023-04-14T16:28:25.765Z,63.04
2023-04-14T16:30:52.301Z,63.23
2023-04-14T16:33:19.001Z,63.43
2023-04-14T16:35:45.478Z,64.15
2023-04-14T16:38:12.217Z,64.23
2023-04-14T16:40:38.758Z,65.88
2023-04-14T16:43:05.436Z,66.76
2023-04-14T16:45:32.125Z,67.50
2023-04-14T16:47:58.726Z,68.84
2023-04-14T16:50:25.267Z,69.28
2023-04-14T16:52:52.386Z,69.59
2023-04-14T16:55:18.839Z,69.18
2023-04-14T16:57:45.630Z,69.85
2023-04-14T17:00:13.722Z,69.75
2023-04-14T17:02:41.236Z,70.31
2023-04-14T17:05:10.254Z,70.54
2023-04-14T17:07:37.012Z,70.62
2023-04-14T17:10:03.627Z,71.39
2023-04-14T17:12:30.130Z,71.36
2023-04-14T17:14:56.869Z,70.87
2023-04-14T17:17:23.421Z,69.97
2023-04-14T17:19:50.029Z,70.01
2023-04-14T17:22:16.682Z,71.19
2023-04-14T17:24:43.983Z,71.56
2023-04-14T17:27:10.928Z,72.24
2023-04-14T17:29:37.461Z,71.49
2023-04-14T17:32:04.324Z,72.16
2023-04-14T17:34:30.852Z,72.21
2023-04-14T17:36:57.353Z,72.79
2023-04-14T17:39:26.897Z,72.61
2023-04-14T17:41:57.855Z,72.40
2023-04-14T17:44:34.466Z,72.85
2023-04-14T17:47:03.194Z,72.79
2023-04-14T17:49:30.110Z,72.30
2023-04-14T17:51:57.017Z,72.19
2023-04-14T17:54:23.486Z,72.28
2023-04-14T17:56:50.319Z,72.37
2023-04-14T17:59:17.011Z,71.75
2023-04-14T18:01:43.676Z,72.69
2023-04-14T18:04:10.406Z,72.54
2023-04-14T18:06:36.921Z,72.13
2023-04-14T18:09:04.036Z,72.39
2023-04-14T18:11:30.762Z,73.07
2023-04-14T18:13:58.317Z,73.13
2023-04-14T18:16:25.052Z,73.94
2023-04-14T18:18:51.557Z,73.94
2023-04-14T18:21:18.658Z,73.66
2023-04-14T18:23:45.408Z,72.88
2023-04-14T18:28:41.519Z,74.02
2023-04-14T18:31:08.697Z,73.60
2023-04-14T18:33:35.236Z,72.72
2023-04-14T18:36:02.055Z,72.75
2023-04-14T18:38:28.680Z,73.80
2023-04-14T18:41:01.213Z,73.95
2023-04-14T18:43:28.302Z,73.85
2023-04-14T18:45:55.103Z,74.51
2023-04-14T18:48:21.647Z,75.18
2023-04-14T18:50:49.125Z,75.71
2023-04-14T18:53:16.004Z,76.61
2023-04-14T18:55:45.463Z,76.72
2023-04-14T18:58:12.934Z,77.85
2023-04-14T19:00:39.875Z,79.81
2023-04-14T19:03:08.493Z,80.17
2023-04-14T19:05:36.831Z,80.55
2023-04-14T19:08:06.916Z,80.76
2023-04-14T19:10:33.926Z,81.79
2023-04-14T19:13:00.394Z,82.64
2023-04-14T19:15:27.742Z,83.31
2023-04-14T19:17:55.051Z,83.80
2023-04-14T19:20:21.972Z,85.28
2023-04-14T19:22:49.463Z,87.50
2023-04-14T19:25:16.546Z,89.60
2023-04-14T19:27:43.543Z,90.90
2023-04-14T19:30:10.809Z,93.06
2023-04-14T19:32:37.472Z,96.12
2023-04-14T19:35:06.600Z,98.41
2023-04-14T19:37:33.852Z,100.00
2023-04-14T19:40:00.844Z,100.00
2023-04-14T19:42:27.340Z,100.00
2023-04-14T19:44:53.792Z,100.00
2023-04-14T19:47:20.321Z,100.00
2023-04-14T19:49:46.821Z,100.00
2023-04-14T19:52:13.309Z,100.00
2023-04-14T19:54:39.872Z,100.00
2023-04-14T19:57:06.759Z,100.00
2023-04-14T19:59:33.393Z,100.00
2023-04-14T20:02:01.947Z,100.00
2023-04-14T20:04:28.512Z,100.00
2023-04-14T20:06:55.263Z,100.00
2023-04-14T20:09:21.767Z,100.00
2023-04-14T20:11:48.264Z,100.00
2023-04-14T20:14:16.107Z,100.00
2023-04-14T20:16:42.809Z,100.00
2023-04-14T20:19:09.441Z,100.00
2023-04-14T20:21:35.943Z,100.00
2023-04-14T20:24:03.093Z,100.00
2023-04-14T20:26:29.573Z,100.00
2023-04-14T20:28:56.107Z,100.00
2023-04-14T20:31:23.822Z,100.00
2023-04-14T20:33:50.947Z,100.00
2023-04-14T20:36:17.523Z,100.00
2023-04-14T20:38:44.041Z,100.00
2023-04-14T20:41:10.538Z,100.00
2023-04-14T20:43:37.048Z,100.00
2023-04-14T20:46:04.143Z,100.00
2023-04-14T20:48:32.079Z,100.00
2023-04-14T20:50:59.625Z,100.00
2023-04-14T20:53:28.232Z,100.00
2023-04-14T20:55:55.010Z,100.00
2023-04-14T20:58:21.506Z,100.00
2023-04-14T21:00:48.025Z,100.00
2023-04-14T21:03:14.616Z,100.00
2023-04-14T21:05:41.262Z,100.00
2023-04-14T21:08:08.322Z,100.00
2023-04-14T21:10:35.577Z,100.00
2023-04-14T21:15:31.035Z,100.00
2023-04-14T21:16:09.113Z,100.00
2023-04-14T21:18:36.323Z,100.00
2023-04-14T21:21:04.731Z,100.00
2023-04-14T21:23:31.569Z,100.00
2023-04-14T21:25:59.795Z,100.00
2023-04-14T21:28:26.332Z,100.00
2023-04-14T21:30:55.822Z,100.00
2023-04-14T21:33:22.329Z,100.00
2023-04-14T21:35:49.531Z,100.00
2023-04-14T21:38:16.224Z,100.00
2023-04-14T21:40:43.248Z,100.00
2023-04-14T21:43:09.719Z,100.00
2023-04-14T21:45:36.801Z,100.00
2023-04-14T21:48:03.477Z,100.00
2023-04-14T21:50:31.968Z,100.00
2023-04-14T21:53:00.070Z,100.00
2023-04-14T21:55:26.545Z,100.00
2023-04-14T21:57:54.586Z,100.00
2023-04-14T22:00:21.342Z,100.00
2023-04-14T22:02:48.270Z,100.00
2023-04-14T22:05:15.003Z,100.00
2023-04-14T22:07:41.534Z,100.00
2023-04-14T22:10:08.230Z,100.00
2023-04-14T22:12:35.972Z,100.00
2023-04-14T22:15:03.802Z,100.00
2023-04-14T22:17:31.157Z,100.00
2023-04-14T22:19:57.701Z,100.00
2023-04-14T22:22:24.379Z,100.00
2023-04-14T22:24:51.740Z,100.00
2023-04-14T22:27:18.281Z,100.00
2023-04-14T22:29:44.762Z,100.00
2023-04-14T22:32:11.450Z,100.00
2023-04-14T22:34:37.986Z,100.00
2023-04-14T22:37:04.528Z,100.00
2023-04-14T22:39:31.271Z,100.00
2023-04-14T22:41:58.016Z,100.00
2023-04-14T22:44:24.477Z,100.00
2023-04-14T22:46:50.956Z,100.00
2023-04-14T22:49:17.440Z,100.00
2023-04-14T22:51:43.966Z,100.00
2023-04-14T22:54:10.432Z,100.00
2023-04-14T22:56:37.217Z,100.00
2023-04-14T22:59:04.047Z,100.00
2023-04-14T23:01:30.985Z,100.00
2023-04-14T23:03:57.535Z,100.00
2023-04-14T23:06:24.650Z,100.00
2023-04-14T23:08:51.268Z,100.00
2023-04-14T23:11:20.790Z,100.00
2023-04-14T23:13:47.810Z,100.00
2023-04-14T23:16:16.683Z,100.00
2023-04-14T23:18:43.383Z,100.00
2023-04-14T23:21:10.036Z,100.00
2023-04-14T23:23:36.963Z,100.00
2023-04-14T23:26:03.770Z,100.00
2023-04-14T23:28:30.246Z,100.00
2023-04-14T23:30:57.208Z,100.00
2023-04-14T23:33:23.681Z,100.00
2023-04-14T23:35:51.072Z,100.00
2023-04-14T23:38:19.333Z,100.00
2023-04-14T23:40:46.096Z,100.00
2023-04-14T23:43:12.551Z,100.00
2023-04-14T23:45:39.029Z,100.00
2023-04-14T23:48:06.559Z,100.00
2023-04-14T23:51:01.052Z,100.00
2023-04-14T23:53:20.047Z,100.00
2023-04-14T23:55:47.575Z,100.00
2023-04-14T23:58:25.989Z,100.00
